Weather at Ástor Piazzola International Airport

Public forecast

Using degrees Celsius for public forecast. Weather courtesy of forecast.io.

Current aviation weather report (METAR) for Ástor Piazzola International Airport

Retrieved 2020/10/31 19:00 UTC (26 minutes ago):

SAZM 311900Z 14012KT CAVOK 19/10 Q1025

Aviation forecast (TAF) for Ástor Piazzola International Airport

Retrieved 2020/10/31 18:00 UTC (1 hour ago):

TAF SAZM 311700Z 3118/0118 VRB03KT CAVOK TX21/0118Z TN07/0110Z BECMG 0115/0118 05010KT